Las Bayas, Argentina
Current Conditions -  °F | °C
As of 12:00 PM on Wednesday 22 Oct 2014 (Local Time) from SAZS Reporting Station
Clear Clear  
Wind Chill: 14°   Ceiling: Unl
Heat Index: 14°   Visibility: 6mi
Dew Point:   Wind: 23mph
Humidity: 44%   Direction: 320°NW
Pressure: 30.06"   Gusts: NA
Location:  41.29°S, 70.7°W
Report Text: SAZS 221500Z 32020KT CAVOK 14/02 Q1018
Loading
Personal Weather Stations






























Interactive Weather Map
Tropical Storm Tracking
New forecast layout! Learn more

10-Day Weather Forecast

Advertisements
Track Severe Weather on mobile